Search for airport 
image banner adimage banner adimage banner ad
image banner ad

84L - Norwalk Sheriff Station

Located in Norwalk, United States

ICAO - 84L, IATA -

Data provided by Airmate  

General information

Coordinates: N33°54'55" W118°4'11"
Elevation is 101 feet MSL.
Magnetic variation is 14° East
View others Airports in California

Operational data

Special qualification required
Current time UTC:
Current local time:
Weather at : KFUL - Fullerton Muni ( 10 km )
METAR: KFUL 210853Z AUTO 00000KT 10SM OVC011 17/13 A2991 RMK AO2 SLP128 T01720133 58004
View NOTAMs / SUP AIP / TFR affecting this airport [VIEW]
Communications frequencies: [VIEW]

Runways:

Airport contact information

Address: Norwalk United States

Satellite view of 84L